Time;durP1;ratioP1;P1;durP2;ratioP2;P2;SDS_P1;SDS_P2;PMS_P1;PMS_P2;Temp;Humidity;BMP_temperature;BMP_pressure;BME280_temperature;BME280_humidity;BME280_pressure;Samples;Min_cycle;Max_cycle;Signal;HPM_P1;HPM_P2
2021/10/25 00:01:54;;;;;;;;;;;20.90;54.80;;;;;;5092776;28;1062;-68
2021/10/25 00:04:20;;;;;;;;;;;20.90;54.90;;;;;;5092594;28;1340;-68
2021/10/25 00:06:45;;;;;;;;;;;20.90;54.80;;;;;;5092550;28;1286;-68
2021/10/25 00:09:11;;;;;;;;;;;20.80;54.90;;;;;;5093055;28;1212;-68
2021/10/25 00:11:36;;;;;;;;;;;20.90;54.90;;;;;;5094662;28;1182;-68
2021/10/25 00:14:02;;;;;;;;;;;20.80;54.90;;;;;;5085042;28;1905;-68
2021/10/25 00:16:27;;;;;;;;;;;20.80;54.90;;;;;;5075748;28;1336;-70
2021/10/25 00:18:53;;;;;;;;;;;20.80;54.90;;;;;;5076550;28;1119;-71
2021/10/25 00:21:18;;;;;;;;;;;20.80;55.00;;;;;;5081119;28;1601;-70
2021/10/25 00:23:44;;;;;;;;;;;20.80;55.00;;;;;;5078666;28;1153;-70
2021/10/25 00:26:09;;;;;;;;;;;20.80;55.00;;;;;;5096337;28;1359;-71
2021/10/25 00:28:34;;;;;;;;;;;20.80;55.00;;;;;;5096655;28;1299;-71
2021/10/25 00:31:00;;;;;;;;;;;20.80;55.00;;;;;;5078291;28;1172;-70
2021/10/25 00:33:25;;;;;;;;;;;20.80;55.10;;;;;;5096444;28;1941;-70
2021/10/25 00:35:52;;;;;;;;;;;20.80;55.10;;;;;;5095919;28;1365;-70
2021/10/25 00:38:18;;;;;;;;;;;20.80;55.10;;;;;;5096620;28;1381;-71
2021/10/25 00:40:46;;;;;;;;;;;20.80;55.10;;;;;;5096228;28;1340;-70
2021/10/25 00:43:12;;;;;;;;;;;20.80;55.10;;;;;;5096638;28;1328;-71
2021/10/25 00:45:40;;;;;;;;;;;20.80;55.10;;;;;;5095993;28;1321;-70
2021/10/25 00:48:05;;;;;;;;;;;20.80;55.20;;;;;;5096188;28;1278;-71
2021/10/25 00:50:31;;;;;;;;;;;20.80;55.20;;;;;;5095984;28;1350;-70
2021/10/25 00:52:56;;;;;;;;;;;20.80;55.20;;;;;;5094964;28;1894;-71
2021/10/25 00:55:22;;;;;;;;;;;20.80;55.20;;;;;;5094636;28;1376;-70
2021/10/25 00:57:47;;;;;;;;;;;20.80;55.30;;;;;;5096052;28;1371;-70
2021/10/25 01:00:13;;;;;;;;;;;20.80;55.30;;;;;;5094944;28;1539;-71
2021/10/25 01:02:39;;;;;;;;;;;20.80;55.30;;;;;;5096031;28;1509;-71
2021/10/25 01:05:04;;;;;;;;;;;20.80;55.30;;;;;;5094184;28;1300;-70
2021/10/25 01:07:29;;;;;;;;;;;20.80;55.30;;;;;;5094704;28;1272;-70
2021/10/25 01:09:55;;;;;;;;;;;20.80;55.30;;;;;;5090210;28;1196;-71
2021/10/25 01:12:20;;;;;;;;;;;20.80;55.30;;;;;;5074367;28;1075;-71
2021/10/25 01:14:46;;;;;;;;;;;20.80;55.40;;;;;;5078743;28;1964;-71
2021/10/25 01:17:11;;;;;;;;;;;20.80;55.40;;;;;;5096121;28;1310;-71
2021/10/25 01:19:37;;;;;;;;;;;20.80;55.40;;;;;;5095652;28;1283;-71
2021/10/25 01:22:03;;;;;;;;;;;20.80;55.40;;;;;;5095255;28;1324;-71
2021/10/25 01:24:28;;;;;;;;;;;20.80;55.40;;;;;;5095473;28;1343;-71
2021/10/25 01:26:54;;;;;;;;;;;20.80;55.50;;;;;;5094322;28;1098;-70
2021/10/25 01:29:19;;;;;;;;;;;20.80;55.40;;;;;;5094317;28;1408;-70
2021/10/25 01:31:45;;;;;;;;;;;20.80;55.50;;;;;;5077456;28;1299;-70
2021/10/25 01:34:13;;;;;;;;;;;20.80;56.00;;;;;;5076818;28;1969;-71
2021/10/25 01:36:38;;;;;;;;;;;20.80;55.50;;;;;;5095440;28;1297;-70
2021/10/25 01:39:04;;;;;;;;;;;20.80;55.50;;;;;;5095450;28;1305;-71
2021/10/25 01:41:29;;;;;;;;;;;20.80;55.50;;;;;;5095270;28;1336;-70
2021/10/25 01:43:54;;;;;;;;;;;20.70;55.50;;;;;;5095095;28;1333;-71
2021/10/25 01:46:20;;;;;;;;;;;20.80;56.10;;;;;;5094764;28;1364;-71
2021/10/25 01:48:46;;;;;;;;;;;20.80;55.50;;;;;;5093633;28;1344;-70
2021/10/25 01:51:11;;;;;;;;;;;20.80;55.50;;;;;;5095129;28;1286;-70
2021/10/25 01:53:37;;;;;;;;;;;20.80;55.60;;;;;;5094911;28;1902;-71
2021/10/25 01:56:03;;;;;;;;;;;20.80;55.60;;;;;;5094699;28;1302;-71
2021/10/25 01:58:29;;;;;;;;;;;20.80;55.60;;;;;;5095227;28;1366;-70
2021/10/25 02:00:54;;;;;;;;;;;20.80;55.60;;;;;;5093695;28;1402;-71
2021/10/25 02:03:20;;;;;;;;;;;20.80;55.60;;;;;;5093616;28;1157;-71
2021/10/25 02:05:45;;;;;;;;;;;20.80;55.60;;;;;;5094384;28;1257;-71
2021/10/25 02:08:11;;;;;;;;;;;20.80;55.60;;;;;;5094655;28;1289;-71
2021/10/25 02:10:36;;;;;;;;;;;20.70;55.60;;;;;;5094679;28;1261;-70
2021/10/25 02:13:02;;;;;;;;;;;20.70;55.60;;;;;;5091262;28;1967;-69
2021/10/25 02:15:27;;;;;;;;;;;20.70;55.60;;;;;;5074006;28;1341;-71
2021/10/25 02:17:53;;;;;;;;;;;20.70;55.60;;;;;;5074210;28;1299;-71
2021/10/25 02:20:18;;;;;;;;;;;20.80;55.70;;;;;;5074105;28;1249;-70
2021/10/25 02:22:44;;;;;;;;;;;20.70;55.60;;;;;;5074137;28;1387;-71
2021/10/25 02:25:09;;;;;;;;;;;20.80;55.70;;;;;;5055866;28;1684;-71
2021/10/25 02:27:34;;;;;;;;;;;20.70;55.70;;;;;;5074055;28;1166;-70
2021/10/25 02:30:00;;;;;;;;;;;20.70;55.70;;;;;;5073680;28;1300;-71
2021/10/25 02:32:25;;;;;;;;;;;20.70;55.70;;;;;;5073930;28;1129;-71
2021/10/25 02:34:51;;;;;;;;;;;20.80;55.80;;;;;;5072610;28;1902;-70
2021/10/25 02:37:17;;;;;;;;;;;20.70;55.70;;;;;;5073820;28;1341;-69
2021/10/25 02:39:43;;;;;;;;;;;20.70;55.70;;;;;;5073978;28;1340;-71
2021/10/25 02:42:08;;;;;;;;;;;20.70;55.80;;;;;;5072557;28;1297;-71
2021/10/25 02:44:34;;;;;;;;;;;20.70;55.80;;;;;;5073419;28;1313;-70
2021/10/25 02:46:59;;;;;;;;;;;20.70;55.80;;;;;;5073649;28;1075;-70
2021/10/25 02:49:25;;;;;;;;;;;20.70;55.80;;;;;;5073518;28;1417;-71
2021/10/25 02:51:51;;;;;;;;;;;20.70;55.80;;;;;;5072451;28;1240;-71
2021/10/25 02:54:16;;;;;;;;;;;20.70;55.90;;;;;;5073505;28;1953;-71
2021/10/25 02:56:42;;;;;;;;;;;20.70;55.90;;;;;;5072231;28;1434;-70
2021/10/25 02:59:09;;;;;;;;;;;20.70;55.80;;;;;;5073587;28;1310;-71
2021/10/25 03:01:37;;;;;;;;;;;20.70;55.90;;;;;;5073268;28;1157;-71
2021/10/25 03:04:03;;;;;;;;;;;20.70;55.90;;;;;;5073543;28;1272;-71
2021/10/25 03:06:28;;;;;;;;;;;20.70;55.90;;;;;;5055072;28;1385;-70
2021/10/25 03:08:55;;;;;;;;;;;20.70;55.90;;;;;;5072199;28;1260;-71
2021/10/25 03:11:20;;;;;;;;;;;20.70;55.90;;;;;;5089255;28;1353;-70
2021/10/25 03:13:46;;;;;;;;;;;20.70;56.00;;;;;;5084196;28;1902;-71
2021/10/25 03:16:11;;;;;;;;;;;20.70;56.00;;;;;;5072524;28;1178;-71
2021/10/25 03:18:37;;;;;;;;;;;20.70;56.00;;;;;;5073039;28;1278;-71
2021/10/25 03:21:02;;;;;;;;;;;20.70;56.00;;;;;;5072991;28;1446;-71
2021/10/25 03:23:28;;;;;;;;;;;20.70;56.00;;;;;;5071966;28;1390;-70
2021/10/25 03:25:53;;;;;;;;;;;20.70;56.00;;;;;;5071534;28;1313;-71
2021/10/25 03:28:19;;;;;;;;;;;20.70;56.00;;;;;;5073105;28;1407;-70
2021/10/25 03:30:44;;;;;;;;;;;20.70;56.00;;;;;;5073420;28;1067;-71
2021/10/25 03:33:10;;;;;;;;;;;20.70;56.10;;;;;;5072645;28;1910;-71
2021/10/25 03:35:35;;;;;;;;;;;20.60;56.00;;;;;;5072582;28;1428;-70
2021/10/25 03:38:00;;;;;;;;;;;20.70;56.10;;;;;;5071638;28;1092;-71
2021/10/25 03:40:27;;;;;;;;;;;20.70;56.10;;;;;;5072796;28;1384;-70
2021/10/25 03:42:54;;;;;;;;;;;20.70;56.10;;;;;;5073234;28;1357;-71
2021/10/25 03:45:37;;;;;;;;;;;20.70;56.10;;;;;;5072369;28;1335;-70
2021/10/25 03:48:14;;;;;;;;;;;20.70;56.10;;;;;;5054805;28;1412;-71
2021/10/25 03:50:41;;;;;;;;;;;20.70;56.00;;;;;;5073041;28;1316;-70
2021/10/25 03:53:13;;;;;;;;;;;20.80;56.00;;;;;;5072689;28;1905;-71
2021/10/25 03:55:55;;;;;;;;;;;20.80;55.90;;;;;;5079620;28;1137;-71
2021/10/25 04:01:30;;;;;;;;;;;20.90;55.80;;;;;;5091959;28;1269;-71
2021/10/25 04:04:10;;;;;;;;;;;20.90;55.70;;;;;;5092872;28;1370;-71
2021/10/25 04:26:06;;;;;;;;;;;21.10;55.30;;;;;;5072307;28;1326;-70
2021/10/25 04:28:34;;;;;;;;;;;21.10;55.30;;;;;;5072509;28;1259;-70
2021/10/25 04:31:00;;;;;;;;;;;21.10;55.30;;;;;;5072432;28;1320;-70
2021/10/25 04:33:26;;;;;;;;;;;21.10;55.30;;;;;;5072736;28;1905;-70
2021/10/25 04:35:51;;;;;;;;;;;21.10;55.20;;;;;;5070853;28;1345;-70
2021/10/25 04:38:17;;;;;;;;;;;21.20;55.20;;;;;;5071147;28;1289;-71
2021/10/25 04:40:43;;;;;;;;;;;21.20;55.20;;;;;;5072278;28;1385;-70
2021/10/25 04:43:13;;;;;;;;;;;21.20;55.20;;;;;;5072346;28;1380;-71
2021/10/25 04:45:39;;;;;;;;;;;21.20;55.20;;;;;;5072303;28;1358;-70
2021/10/25 04:48:04;;;;;;;;;;;21.20;55.20;;;;;;5070835;28;1277;-71
2021/10/25 04:50:29;;;;;;;;;;;21.10;55.10;;;;;;5072338;28;1330;-71
2021/10/25 04:52:55;;;;;;;;;;;21.20;55.10;;;;;;5072121;28;1944;-71
2021/10/25 04:55:21;;;;;;;;;;;21.20;55.10;;;;;;5071855;28;1263;-71
2021/10/25 04:57:46;;;;;;;;;;;21.20;55.10;;;;;;5074059;28;1271;-70
2021/10/25 05:00:12;;;;;;;;;;;21.20;55.10;;;;;;5074647;28;1387;-71
2021/10/25 05:02:38;;;;;;;;;;;21.20;55.10;;;;;;5075564;28;1286;-71
2021/10/25 05:05:04;;;;;;;;;;;21.20;55.10;;;;;;5075406;28;1365;-71
2021/10/25 05:07:30;;;;;;;;;;;21.20;55.10;;;;;;5075658;28;1043;-71
2021/10/25 05:09:57;;;;;;;;;;;21.20;55.10;;;;;;5078708;28;1245;-70
2021/10/25 05:12:22;;;;;;;;;;;21.20;55.10;;;;;;5095738;28;1058;-71
2021/10/25 05:14:48;;;;;;;;;;;21.20;55.10;;;;;;5077304;28;1910;-71
2021/10/25 05:17:13;;;;;;;;;;;21.20;55.10;;;;;;5075259;28;1398;-70
2021/10/25 05:19:38;;;;;;;;;;;21.20;55.10;;;;;;5075509;28;1364;-71
2021/10/25 05:22:04;;;;;;;;;;;21.20;55.10;;;;;;5075398;28;1331;-71
2021/10/25 05:24:30;;;;;;;;;;;21.20;55.10;;;;;;5074977;28;1214;-71
2021/10/25 05:26:55;;;;;;;;;;;21.20;55.10;;;;;;5075286;28;1118;-70
2021/10/25 05:29:21;;;;;;;;;;;21.20;55.10;;;;;;5075196;28;1260;-71
2021/10/25 05:31:47;;;;;;;;;;;21.20;55.10;;;;;;5075187;28;1383;-71
2021/10/25 05:34:12;;;;;;;;;;;21.20;55.10;;;;;;5074973;28;1914;-70
2021/10/25 05:36:38;;;;;;;;;;;21.20;55.10;;;;;;5075327;28;1320;-70
2021/10/25 05:39:08;;;;;;;;;;;21.20;55.00;;;;;;5075128;28;1411;-71
2021/10/25 05:41:34;;;;;;;;;;;21.20;55.10;;;;;;5074939;28;1277;-71
2021/10/25 05:43:59;;;;;;;;;;;21.30;55.10;;;;;;5074974;28;1438;-70
2021/10/25 05:46:24;;;;;;;;;;;21.20;55.10;;;;;;5074606;28;1287;-71
2021/10/25 05:48:52;;;;;;;;;;;21.30;55.10;;;;;;5075344;28;1327;-70
2021/10/25 05:51:17;;;;;;;;;;;21.20;55.10;;;;;;5074855;28;1314;-70
2021/10/25 05:53:45;;;;;;;;;;;21.30;55.10;;;;;;5074819;28;1947;-70
2021/10/25 05:56:10;;;;;;;;;;;21.30;55.10;;;;;;5074430;28;1419;-70
2021/10/25 05:58:36;;;;;;;;;;;21.30;55.10;;;;;;5074758;28;1143;-71
2021/10/25 06:01:05;;;;;;;;;;;21.30;55.10;;;;;;5056627;28;1498;-72
2021/10/25 06:03:33;;;;;;;;;;;21.30;54.10;;;;;;5079303;28;1039;-71
2021/10/25 06:05:59;;;;;;;;;;;21.20;50.20;;;;;;5094594;28;1179;-72
2021/10/25 06:08:24;;;;;;;;;;;21.20;47.70;;;;;;5093972;28;1181;-72
2021/10/25 06:10:50;;;;;;;;;;;21.20;46.20;;;;;;5084876;28;1976;-71
2021/10/25 06:13:26;;;;;;;;;;;21.10;44.90;;;;;;5093888;28;1914;-69
2021/10/25 06:18:35;;;;;;;;;;;21.00;42.80;;;;;;5083580;28;992;-71
2021/10/25 06:21:02;;;;;;;;;;;21.00;42.20;;;;;;5094318;28;1285;-70
2021/10/25 06:23:27;;;;;;;;;;;20.90;41.60;;;;;;5094330;28;1383;-68
2021/10/25 06:25:52;;;;;;;;;;;20.90;41.20;;;;;;5093751;28;1301;-70
2021/10/25 06:28:19;;;;;;;;;;;20.80;40.80;;;;;;5094223;28;1293;-69
2021/10/25 06:30:46;;;;;;;;;;;20.80;40.40;;;;;;5093111;28;1082;-70
2021/10/25 06:33:14;;;;;;;;;;;20.80;40.20;;;;;;5092881;28;1914;-70
2021/10/25 06:35:40;;;;;;;;;;;20.70;39.90;;;;;;5091628;28;2142;-71
2021/10/25 06:38:10;;;;;;;;;;;20.70;39.80;;;;;;5093641;28;1195;-70
2021/10/25 06:40:36;;;;;;;;;;;20.70;39.60;;;;;;5093886;28;1374;-72
2021/10/25 06:43:01;;;;;;;;;;;20.60;39.40;;;;;;5088085;28;2158;-68
2021/10/25 06:45:27;;;;;;;;;;;20.60;41.00;;;;;;5093457;28;1349;-68
2021/10/25 06:47:53;;;;;;;;;;;20.60;44.00;;;;;;5093571;28;1077;-68
2021/10/25 06:50:19;;;;;;;;;;;20.60;44.30;;;;;;5060052;28;1047;-68
2021/10/25 06:52:44;;;;;;;;;;;20.70;43.90;;;;;;5093646;28;1338;-68
2021/10/25 06:55:10;;;;;;;;;;;20.70;43.80;;;;;;5089650;28;1965;-69
2021/10/25 06:57:35;;;;;;;;;;;20.70;45.60;;;;;;5093558;28;1051;-69
2021/10/25 07:00:02;;;;;;;;;;;20.70;45.60;;;;;;5093623;28;1348;-70
2021/10/25 07:02:27;;;;;;;;;;;20.80;46.00;;;;;;5089992;28;1114;-70
2021/10/25 07:04:53;;;;;;;;;;;20.90;46.20;;;;;;5093340;28;1437;-70
2021/10/25 07:07:21;;;;;;;;;;;21.00;46.30;;;;;;5092383;28;1237;-70
2021/10/25 07:09:46;;;;;;;;;;;21.10;46.40;;;;;;5093207;28;1216;-70
2021/10/25 07:12:12;;;;;;;;;;;21.10;46.40;;;;;;5093442;28;1351;-70
2021/10/25 07:14:39;;;;;;;;;;;21.30;46.50;;;;;;5061231;28;1965;-70
2021/10/25 07:17:21;;;;;;;;;;;21.40;46.70;;;;;;5093675;28;1278;-70
2021/10/25 07:28:08;;;;;;;;;;;21.70;47.30;;;;;;5072944;28;1101;-68
2021/10/25 08:11:49;;;;;;;;;;;22.30;49.50;;;;;;5092905;28;1316;-69
2021/10/25 08:14:15;;;;;;;;;;;22.30;49.80;;;;;;5078686;28;1914;-68
2021/10/25 08:16:51;;;;;;;;;;;22.40;49.90;;;;;;5072853;28;1348;-69
2021/10/25 08:19:26;;;;;;;;;;;22.40;50.00;;;;;;5072468;28;1340;-69
2021/10/25 08:21:59;;;;;;;;;;;22.40;50.10;;;;;;5071496;28;1280;-68
2021/10/25 08:24:25;;;;;;;;;;;22.40;50.40;;;;;;5072104;28;1325;-69
2021/10/25 08:26:50;;;;;;;;;;;22.40;50.50;;;;;;5071080;28;1212;-68
2021/10/25 08:29:16;;;;;;;;;;;22.40;50.50;;;;;;5071339;28;1245;-68
2021/10/25 08:31:43;;;;;;;;;;;22.40;50.60;;;;;;5071467;28;1276;-69
2021/10/25 08:34:35;;;;;;;;;;;22.40;50.60;;;;;;5092452;28;2202;-68
2021/10/25 08:39:48;;;;;;;;;;;22.40;50.60;;;;;;5094202;28;1855;-68
2021/10/25 08:42:14;;;;;;;;;;;22.40;50.70;;;;;;5089883;28;1079;-68
2021/10/25 08:44:41;;;;;;;;;;;22.40;50.80;;;;;;5075698;28;1359;-68
2021/10/25 08:47:08;;;;;;;;;;;22.40;50.80;;;;;;5074805;28;1403;-68
2021/10/25 08:49:33;;;;;;;;;;;22.40;51.00;;;;;;5074713;28;1353;-68
2021/10/25 08:52:00;;;;;;;;;;;22.40;51.40;;;;;;5075797;28;1374;-68
2021/10/25 08:54:26;;;;;;;;;;;22.40;51.40;;;;;;5075602;28;1906;-68
2021/10/25 08:56:51;;;;;;;;;;;22.40;51.40;;;;;;5093493;28;1199;-68
2021/10/25 08:59:17;;;;;;;;;;;22.40;51.60;;;;;;5096037;28;1250;-68
2021/10/25 09:01:42;;;;;;;;;;;22.40;51.80;;;;;;5095793;28;1266;-68
2021/10/25 09:04:08;;;;;;;;;;;22.40;51.70;;;;;;5095549;28;1378;-68
2021/10/25 09:06:34;;;;;;;;;;;22.40;51.90;;;;;;5077310;28;1327;-68
2021/10/25 09:09:00;;;;;;;;;;;22.40;52.20;;;;;;5094397;28;1239;-68
2021/10/25 09:11:26;;;;;;;;;;;22.40;52.20;;;;;;5095727;28;1328;-68
2021/10/25 09:13:51;;;;;;;;;;;22.40;52.30;;;;;;5086027;28;1905;-67
2021/10/25 09:16:17;;;;;;;;;;;22.30;52.30;;;;;;5057134;28;1390;-68
2021/10/25 09:18:43;;;;;;;;;;;22.40;52.40;;;;;;5075974;28;1272;-68
2021/10/25 09:21:13;;;;;;;;;;;22.30;52.40;;;;;;5075233;28;1293;-68
2021/10/25 09:23:40;;;;;;;;;;;22.30;52.50;;;;;;5074210;28;1324;-68
2021/10/25 09:26:08;;;;;;;;;;;22.30;52.50;;;;;;5074896;28;1282;-68
2021/10/25 09:28:35;;;;;;;;;;;22.30;52.70;;;;;;5075305;28;1255;-68
2021/10/25 09:31:01;;;;;;;;;;;22.30;52.70;;;;;;5075242;28;1360;-68
2021/10/25 09:33:35;;;;;;;;;;;22.30;52.80;;;;;;5073816;28;1910;-68
2021/10/25 09:36:05;;;;;;;;;;;22.30;52.80;;;;;;5056849;28;1407;-68
2021/10/25 09:49:24;;;;;;;;;;;22.30;53.10;;;;;;5071536;28;1339;-68
2021/10/25 09:51:51;;;;;;;;;;;22.30;53.20;;;;;;5094092;28;1343;-68
2021/10/25 09:54:20;;;;;;;;;;;22.30;53.20;;;;;;5094435;28;1945;-68
2021/10/25 09:56:53;;;;;;;;;;;22.30;53.30;;;;;;5082768;28;1819;-68
2021/10/25 09:59:54;;;;;;;;;;;22.30;53.40;;;;;;5077572;28;2252;-68
2021/10/25 10:02:14;;;;;;;;;;;22.30;53.50;;;;;;5083427;28;2184;-68
2021/10/25 10:04:40;;;;;;;;;;;22.30;53.50;;;;;;5075026;28;2274;-68
2021/10/25 10:07:06;;;;;;;;;;;22.30;53.60;;;;;;5094597;28;1224;-68
2021/10/25 10:09:31;;;;;;;;;;;22.20;53.60;;;;;;5075858;28;1872;-68
2021/10/25 10:11:57;;;;;;;;;;;22.30;53.80;;;;;;5074685;28;1211;-68
2021/10/25 10:14:23;;;;;;;;;;;22.30;53.90;;;;;;5074805;28;1910;-68
2021/10/25 10:16:48;;;;;;;;;;;22.30;54.00;;;;;;5079101;28;1978;-67
2021/10/25 10:19:18;;;;;;;;;;;22.30;54.00;;;;;;5075451;28;1340;-69
2021/10/25 10:21:44;;;;;;;;;;;22.20;54.00;;;;;;5084823;28;1060;-69
2021/10/25 10:24:09;;;;;;;;;;;22.20;54.10;;;;;;5078887;28;1330;-69
2021/10/25 10:26:37;;;;;;;;;;;22.20;54.10;;;;;;5094418;28;1326;-69
2021/10/25 10:29:08;;;;;;;;;;;22.20;54.20;;;;;;5094109;28;1272;-69
2021/10/25 10:31:35;;;;;;;;;;;22.20;54.30;;;;;;5091579;28;1040;-69
2021/10/25 10:34:08;;;;;;;;;;;22.20;54.40;;;;;;5091692;28;1976;-69
2021/10/25 10:36:35;;;;;;;;;;;22.20;54.40;;;;;;5083751;28;1254;-69
2021/10/25 10:39:05;;;;;;;;;;;22.20;54.80;;;;;;5072488;28;1286;-69
2021/10/25 10:41:54;;;;;;;;;;;22.20;54.60;;;;;;5072643;28;1279;-69
2021/10/25 10:44:20;;;;;;;;;;;22.20;54.60;;;;;;5073236;28;1434;-69
2021/10/25 10:46:52;;;;;;;;;;;22.10;54.60;;;;;;5093215;28;1332;-69
2021/10/25 10:49:37;;;;;;;;;;;22.10;54.70;;;;;;5063150;28;1051;-69
2021/10/25 10:52:09;;;;;;;;;;;22.10;54.70;;;;;;5062741;28;1302;-69
2021/10/25 10:54:44;;;;;;;;;;;22.10;54.80;;;;;;5092449;28;1894;-70
2021/10/25 10:57:23;;;;;;;;;;;22.10;54.90;;;;;;5093880;28;1399;-69
2021/10/25 10:59:50;;;;;;;;;;;22.10;55.00;;;;;;5093706;28;1153;-69
2021/10/25 11:02:19;;;;;;;;;;;22.10;55.00;;;;;;5080670;28;1225;-69
2021/10/25 11:04:45;;;;;;;;;;;22.10;55.00;;;;;;5092972;28;1350;-69
2021/10/25 11:07:10;;;;;;;;;;;22.10;55.10;;;;;;5093558;28;1376;-69
2021/10/25 11:09:35;;;;;;;;;;;22.10;55.20;;;;;;5093440;28;1243;-69
2021/10/25 11:12:09;;;;;;;;;;;22.10;55.20;;;;;;5093506;28;1055;-69
2021/10/25 11:14:35;;;;;;;;;;;22.00;55.10;;;;;;5076890;28;1960;-69
2021/10/25 11:19:47;;;;;;;;;;;22.00;55.30;;;;;;5072911;28;1360;-69
2021/10/25 11:22:23;;;;;;;;;;;22.00;55.30;;;;;;5078797;28;1306;-69
2021/10/25 11:24:55;;;;;;;;;;;22.00;55.40;;;;;;5079704;28;1234;-69
2021/10/25 11:27:35;;;;;;;;;;;22.00;55.50;;;;;;5089013;28;1262;-69
2021/10/25 11:30:08;;;;;;;;;;;22.00;55.50;;;;;;5091617;28;1326;-69
2021/10/25 11:32:34;;;;;;;;;;;22.00;55.60;;;;;;5088789;28;1680;-70
2021/10/25 11:34:59;;;;;;;;;;;22.00;55.60;;;;;;5091176;28;1902;-70
2021/10/25 11:37:26;;;;;;;;;;;22.00;55.70;;;;;;5092952;28;1233;-69
2021/10/25 11:40:05;;;;;;;;;;;22.00;55.70;;;;;;5092872;28;1267;-69
2021/10/25 11:42:31;;;;;;;;;;;22.00;55.70;;;;;;5092013;28;1275;-70
2021/10/25 11:45:04;;;;;;;;;;;21.90;55.70;;;;;;5091451;28;1294;-70
2021/10/25 11:47:30;;;;;;;;;;;21.90;55.80;;;;;;5091291;28;1269;-70
2021/10/25 11:50:00;;;;;;;;;;;22.00;55.90;;;;;;5091034;28;1846;-70
2021/10/25 11:52:25;;;;;;;;;;;21.90;55.90;;;;;;5092884;28;1294;-71
2021/10/25 11:54:51;;;;;;;;;;;21.90;55.90;;;;;;5091585;28;1889;-70
2021/10/25 11:57:21;;;;;;;;;;;21.90;55.90;;;;;;5071241;28;1305;-71
2021/10/25 11:59:56;;;;;;;;;;;21.90;56.00;;;;;;5071078;28;1335;-71
2021/10/25 12:02:22;;;;;;;;;;;21.90;56.00;;;;;;5071524;28;1253;-70
2021/10/25 12:04:47;;;;;;;;;;;21.90;56.00;;;;;;5071886;28;1312;-72
2021/10/25 12:07:13;;;;;;;;;;;21.90;54.80;;;;;;5075530;28;1356;-71
2021/10/25 12:09:38;;;;;;;;;;;21.80;51.70;;;;;;5078471;28;1103;-72
2021/10/25 12:12:14;;;;;;;;;;;21.80;50.00;;;;;;5096835;28;1340;-72
2021/10/25 12:14:42;;;;;;;;;;;21.70;49.10;;;;;;5097022;28;1955;-71
2021/10/25 12:17:09;;;;;;;;;;;21.60;49.10;;;;;;5095767;28;1328;-71
2021/10/25 12:19:35;;;;;;;;;;;21.60;47.50;;;;;;5095560;28;1300;-71
2021/10/25 12:22:07;;;;;;;;;;;21.50;46.90;;;;;;5096891;28;1157;-71
2021/10/25 12:24:39;;;;;;;;;;;21.50;46.50;;;;;;5095954;28;1392;-71
2021/10/25 12:27:06;;;;;;;;;;;21.40;46.30;;;;;;5096832;28;1059;-71
2021/10/25 12:29:31;;;;;;;;;;;21.40;46.30;;;;;;5095415;28;1051;-72
2021/10/25 12:32:06;;;;;;;;;;;21.30;47.00;;;;;;5095983;28;1027;-72
2021/10/25 12:34:31;;;;;;;;;;;21.30;46.60;;;;;;5077731;28;1910;-73
2021/10/25 12:36:57;;;;;;;;;;;21.30;47.20;;;;;;5095825;28;1071;-71
2021/10/25 12:39:23;;;;;;;;;;;21.20;47.80;;;;;;5090166;28;1134;-71
2021/10/25 12:41:50;;;;;;;;;;;21.20;48.10;;;;;;5075096;28;1276;-70
2021/10/25 12:44:23;;;;;;;;;;;21.20;48.10;;;;;;5075661;28;1337;-71
2021/10/25 12:46:48;;;;;;;;;;;21.20;47.80;;;;;;5074852;28;1363;-71
2021/10/25 12:49:18;;;;;;;;;;;21.20;48.50;;;;;;5074432;28;1395;-70
2021/10/25 12:51:45;;;;;;;;;;;21.20;48.40;;;;;;5074730;28;1308;-70
2021/10/25 12:54:11;;;;;;;;;;;21.10;48.50;;;;;;5090016;28;1906;-71
2021/10/25 12:56:37;;;;;;;;;;;21.10;49.40;;;;;;5095258;28;1256;-71
2021/10/25 12:59:07;;;;;;;;;;;21.10;48.80;;;;;;5087346;28;1275;-68
2021/10/25 13:01:33;;;;;;;;;;;21.10;49.50;;;;;;5074881;28;1398;-71
2021/10/25 13:03:59;;;;;;;;;;;21.10;48.90;;;;;;5091157;28;1376;-71
2021/10/25 13:06:31;;;;;;;;;;;21.00;49.40;;;;;;5077093;28;1308;-69
2021/10/25 13:08:57;;;;;;;;;;;21.00;49.50;;;;;;5096181;28;1161;-70
2021/10/25 13:11:23;;;;;;;;;;;21.00;49.90;;;;;;5077919;28;1385;-70
2021/10/25 13:13:48;;;;;;;;;;;21.00;49.80;;;;;;5086207;28;1902;-70
2021/10/25 13:16:16;;;;;;;;;;;21.00;49.70;;;;;;5075074;28;1291;-70
2021/10/25 13:18:41;;;;;;;;;;;21.00;50.20;;;;;;5074854;28;1271;-70
2021/10/25 13:21:06;;;;;;;;;;;20.90;49.80;;;;;;5075365;28;1534;-70
2021/10/25 13:23:32;;;;;;;;;;;21.00;50.00;;;;;;5075659;28;1241;-71
2021/10/25 13:25:57;;;;;;;;;;;20.90;50.00;;;;;;5074853;28;1382;-70
2021/10/25 13:28:23;;;;;;;;;;;20.90;50.40;;;;;;5075402;28;1279;-70
2021/10/25 13:30:48;;;;;;;;;;;20.90;50.20;;;;;;5075168;28;1304;-70
2021/10/25 13:33:14;;;;;;;;;;;20.90;50.00;;;;;;5074986;28;1913;-69
2021/10/25 13:35:39;;;;;;;;;;;20.90;50.20;;;;;;5074709;28;1329;-68
2021/10/25 13:38:06;;;;;;;;;;;20.90;50.10;;;;;;5075365;28;1358;-68
2021/10/25 13:40:33;;;;;;;;;;;20.90;50.90;;;;;;5057092;28;1395;-68
2021/10/25 13:43:01;;;;;;;;;;;20.90;50.70;;;;;;5075048;28;1375;-68
2021/10/25 13:45:26;;;;;;;;;;;20.80;49.70;;;;;;5074092;28;1347;-70
2021/10/25 13:47:51;;;;;;;;;;;20.90;50.20;;;;;;5073615;28;1341;-68
2021/10/25 13:50:17;;;;;;;;;;;20.80;50.60;;;;;;5074878;28;1250;-68
2021/10/25 13:52:43;;;;;;;;;;;20.80;50.50;;;;;;5073805;28;1376;-69
2021/10/25 13:55:08;;;;;;;;;;;20.80;49.80;;;;;;5073320;28;1959;-68
2021/10/25 13:57:41;;;;;;;;;;;20.80;50.20;;;;;;5073555;28;1153;-68
2021/10/25 14:00:07;;;;;;;;;;;20.80;50.40;;;;;;5073928;28;1319;-71
2021/10/25 14:02:33;;;;;;;;;;;20.80;50.10;;;;;;5076927;28;1078;-71
2021/10/25 14:04:59;;;;;;;;;;;20.80;50.40;;;;;;5077948;28;1355;-71
2021/10/25 14:07:31;;;;;;;;;;;20.80;50.50;;;;;;5074999;28;1362;-70
2021/10/25 14:10:06;;;;;;;;;;;20.80;50.70;;;;;;5077962;28;1518;-71
2021/10/25 14:12:31;;;;;;;;;;;20.80;50.40;;;;;;5076532;28;1419;-71
2021/10/25 14:15:32;;;;;;;;;;;20.70;50.60;;;;;;5074541;28;1969;-71
2021/10/25 14:17:50;;;;;;;;;;;20.70;50.30;;;;;;5069289;28;1310;-71
2021/10/25 14:20:16;;;;;;;;;;;20.70;50.60;;;;;;5073382;28;1392;-70
2021/10/25 14:22:41;;;;;;;;;;;20.70;50.70;;;;;;5074346;28;1051;-71
2021/10/25 14:25:07;;;;;;;;;;;20.70;50.70;;;;;;5072450;28;1375;-71
2021/10/25 14:27:33;;;;;;;;;;;20.70;50.50;;;;;;5074250;28;1046;-71
2021/10/25 14:29:59;;;;;;;;;;;20.70;50.50;;;;;;5073390;28;1299;-71
2021/10/25 14:32:26;;;;;;;;;;;20.70;50.40;;;;;;5072938;28;1392;-71
2021/10/25 14:34:51;;;;;;;;;;;20.70;50.90;;;;;;5082398;28;2235;-69
2021/10/25 14:37:16;;;;;;;;;;;20.70;50.50;;;;;;5091797;28;1110;-69
2021/10/25 14:39:47;;;;;;;;;;;20.70;49.60;;;;;;5089935;28;1160;-69
2021/10/25 14:42:25;;;;;;;;;;;20.70;49.10;;;;;;5087382;28;1265;-69
2021/10/25 14:44:57;;;;;;;;;;;20.70;49.40;;;;;;5073535;28;1401;-69
2021/10/25 14:55:44;;;;;;;;;;;20.70;49.20;;;;;;5093333;28;1910;-70
2021/10/25 14:58:09;;;;;;;;;;;20.70;49.50;;;;;;5062431;28;1601;-70
2021/10/25 15:00:35;;;;;;;;;;;20.70;51.00;;;;;;5093661;28;1113;-69
2021/10/25 15:03:01;;;;;;;;;;;20.80;51.70;;;;;;5079410;28;1204;-70
2021/10/25 15:05:27;;;;;;;;;;;20.90;53.20;;;;;;5093471;28;1266;-70
2021/10/25 15:07:55;;;;;;;;;;;20.90;53.00;;;;;;5093240;28;1114;-69
2021/10/25 15:10:21;;;;;;;;;;;20.90;52.00;;;;;;5081248;28;1079;-70
2021/10/25 15:12:49;;;;;;;;;;;20.90;51.70;;;;;;5078665;28;1141;-69
2021/10/25 15:15:14;;;;;;;;;;;20.90;51.60;;;;;;5072557;28;1953;-69
2021/10/25 15:17:42;;;;;;;;;;;20.90;51.60;;;;;;5073085;28;1301;-69
2021/10/25 15:20:07;;;;;;;;;;;20.90;51.50;;;;;;5075764;28;1436;-70
2021/10/25 15:22:33;;;;;;;;;;;20.90;51.40;;;;;;5078790;28;1158;-69
2021/10/25 15:24:58;;;;;;;;;;;20.90;51.50;;;;;;5093403;28;1244;-70
2021/10/25 15:27:24;;;;;;;;;;;20.90;51.40;;;;;;5078485;28;1269;-70
2021/10/25 15:29:50;;;;;;;;;;;20.90;51.40;;;;;;5072963;28;1261;-70
2021/10/25 15:32:16;;;;;;;;;;;20.90;51.40;;;;;;5073121;28;1346;-70
2021/10/25 15:34:42;;;;;;;;;;;20.90;51.40;;;;;;5071450;28;1897;-69
2021/10/25 15:37:11;;;;;;;;;;;20.90;51.40;;;;;;5087684;28;1083;-69
2021/10/25 15:39:36;;;;;;;;;;;20.90;51.50;;;;;;5093412;28;1680;-69
2021/10/25 15:42:02;;;;;;;;;;;21.00;52.20;;;;;;5091569;28;1218;-69
2021/10/25 15:44:28;;;;;;;;;;;21.00;51.60;;;;;;5072367;28;1237;-69
2021/10/25 15:46:54;;;;;;;;;;;20.90;51.60;;;;;;5073163;28;1294;-70
2021/10/25 15:49:20;;;;;;;;;;;21.00;51.60;;;;;;5072999;28;1678;-70
2021/10/25 15:51:49;;;;;;;;;;;21.00;51.60;;;;;;5072923;28;1301;-69
2021/10/25 15:54:14;;;;;;;;;;;20.90;51.60;;;;;;5071361;28;1901;-69
2021/10/25 15:56:40;;;;;;;;;;;20.90;51.70;;;;;;5088357;28;1330;-69
2021/10/25 15:59:05;;;;;;;;;;;21.00;51.70;;;;;;5092843;28;1118;-69
2021/10/25 16:01:31;;;;;;;;;;;21.00;51.70;;;;;;5092931;28;1070;-70
2021/10/25 16:03:56;;;;;;;;;;;21.00;51.70;;;;;;5092725;28;1277;-70
2021/10/25 16:06:22;;;;;;;;;;;21.00;51.80;;;;;;5092731;28;1306;-69
2021/10/25 16:08:47;;;;;;;;;;;21.00;51.80;;;;;;5083477;28;1195;-70
2021/10/25 16:11:12;;;;;;;;;;;21.00;51.80;;;;;;5069742;28;1293;-69